Time;durP1;ratioP1;P1;durP2;ratioP2;P2;SDS_P1;SDS_P2;PMS_P1;PMS_P2;Temp;Humidity;BMP_temperature;BMP_pressure;BME280_temperature;BME280_humidity;BME280_pressure;Samples;Min_cycle;Max_cycle;Signal;HPM_P1;HPM_P2
2021/04/28 00:02:39;;;;;;;13.35;3.75;;;;;;;5.07;100.00;99200.88;5050029;28;20056;-79
2021/04/28 00:05:43;;;;;;;7.70;3.47;;;;;;;5.01;100.00;99197.16;5049216;28;20064;-79
2021/04/28 00:08:46;;;;;;;9.52;3.35;;;;;;;5.00;100.00;99198.41;5049599;28;20052;-78
2021/04/28 00:11:49;;;;;;;2.30;1.83;;;;;;;4.95;100.00;99196.22;5049727;28;20068;-79
2021/04/28 00:14:53;;;;;;;4.53;2.90;;;;;;;4.93;100.00;99201.44;5049559;28;20056;-79
2021/04/28 00:17:56;;;;;;;8.40;3.25;;;;;;;4.87;100.00;99197.75;5049522;28;20056;-78
2021/04/28 00:21:00;;;;;;;3.05;2.28;;;;;;;4.85;100.00;99197.41;5049744;28;20418;-79
2021/04/28 00:24:04;;;;;;;3.88;3.28;;;;;;;4.80;100.00;99203.53;5049796;28;20072;-79
2021/04/28 00:27:07;;;;;;;6.07;3.10;;;;;;;4.75;100.00;99199.34;5053274;28;20537;-79
2021/04/28 00:30:13;;;;;;;22.15;3.85;;;;;;;4.66;100.00;99196.53;5053120;28;20090;-78
2021/04/28 00:33:16;;;;;;;2.75;2.30;;;;;;;4.65;100.00;99194.25;5052645;28;20476;-79
2021/04/28 00:36:19;;;;;;;6.30;3.42;;;;;;;4.57;100.00;99191.75;5052333;28;20064;-78
2021/04/28 00:39:23;;;;;;;1.85;1.63;;;;;;;4.50;100.00;99192.00;5053425;28;20056;-78
2021/04/28 00:42:27;;;;;;;3.80;2.60;;;;;;;4.46;100.00;99191.38;5053253;28;20068;-78
2021/04/28 00:45:33;;;;;;;6.13;3.03;;;;;;;4.44;100.00;99193.81;5053273;28;20410;-78
2021/04/28 00:48:36;;;;;;;6.18;2.55;;;;;;;4.43;100.00;99197.03;5053262;28;20086;-79
2021/04/28 00:51:40;;;;;;;4.28;2.40;;;;;;;4.42;100.00;99196.25;5051731;28;20073;-78
2021/04/28 00:54:44;;;;;;;6.63;3.17;;;;;;;4.43;100.00;99191.50;5052960;28;20056;-78
2021/04/28 00:57:47;;;;;;;3.75;2.78;;;;;;;4.44;100.00;99204.84;5052939;28;20422;-78
2021/04/28 01:00:52;;;;;;;1.77;1.67;;;;;;;4.42;100.00;99196.25;5052963;28;20056;-78
2021/04/28 01:03:56;;;;;;;5.38;2.92;;;;;;;4.43;100.00;99191.50;5052902;28;20068;-77
2021/04/28 01:07:02;;;;;;;6.32;3.35;;;;;;;4.42;100.00;99193.50;5052662;28;20060;-77
2021/04/28 01:10:10;;;;;;;6.28;2.75;;;;;;;4.39;100.00;99191.66;5052459;28;20056;-78
2021/04/28 01:13:13;;;;;;;4.95;3.00;;;;;;;4.36;100.00;99187.03;5040633;28;20060;-79
2021/04/28 01:16:17;;;;;;;8.07;3.38;;;;;;;4.34;100.00;99188.69;5053203;28;20068;-78
2021/04/28 01:19:23;;;;;;;10.30;3.63;;;;;;;4.32;100.00;99191.13;5051852;28;20048;-78
2021/04/28 01:22:33;;;;;;;19.05;2.30;;;;;;;4.29;100.00;99186.50;5052437;28;20060;-79
2021/04/28 01:25:37;;;;;;;7.13;3.53;;;;;;;4.29;100.00;99181.78;5053536;28;20081;-78
2021/04/28 01:28:41;;;;;;;6.75;3.70;;;;;;;4.30;100.00;99177.81;5052686;28;20056;-79
2021/04/28 01:31:45;;;;;;;3.50;2.30;;;;;;;4.36;100.00;99181.53;5052238;28;20060;-78
2021/04/28 01:34:52;;;;;;;8.02;4.22;;;;;;;4.35;100.00;99173.72;5051813;28;20055;-78
2021/04/28 01:37:56;;;;;;;4.28;2.85;;;;;;;4.34;100.00;99175.69;5051703;28;20518;-78
2021/04/28 01:41:01;;;;;;;4.78;2.72;;;;;;;4.34;100.00;99185.94;5051544;28;20071;-78
2021/04/28 01:44:06;;;;;;;10.93;3.78;;;;;;;4.34;100.00;99186.72;5051876;28;20052;-78
2021/04/28 01:47:11;;;;;;;4.43;3.95;;;;;;;4.31;100.00;99176.59;5051587;28;20546;-79
2021/04/28 01:50:17;;;;;;;6.45;3.28;;;;;;;4.29;100.00;99176.25;5051603;28;20068;-78
2021/04/28 01:53:24;;;;;;;4.88;3.38;;;;;;;4.24;100.00;99171.34;5031348;28;20570;-78
2021/04/28 01:56:28;;;;;;;8.40;3.63;;;;;;;4.21;100.00;99172.22;5032115;28;20060;-78
2021/04/28 01:59:32;;;;;;;5.15;2.70;;;;;;;4.19;100.00;99171.91;5031901;28;20056;-78
2021/04/28 02:02:39;;;;;;;4.60;3.03;;;;;;;4.14;100.00;99179.97;5031795;28;20057;-78
2021/04/28 02:05:42;;;;;;;2.20;2.10;;;;;;;4.08;100.00;99177.03;5031831;28;20072;-77
2021/04/28 02:08:46;;;;;;;2.85;2.20;;;;;;;4.06;100.00;99182.22;5031563;28;20056;-77
2021/04/28 02:11:50;;;;;;;4.55;2.70;;;;;;;4.02;100.00;99189.84;5031416;28;20064;-77
2021/04/28 02:14:55;;;;;;;12.50;3.65;;;;;;;4.03;100.00;99185.88;5031408;28;20424;-77
2021/04/28 02:18:01;;;;;;;1.98;1.70;;;;;;;4.01;100.00;99177.28;5031053;28;20052;-78
2021/04/28 02:21:05;;;;;;;6.40;2.35;;;;;;;3.97;100.00;99182.16;5030965;28;20053;-78
2021/04/28 02:24:13;;;;;;;6.57;2.63;;;;;;;3.94;100.00;99176.78;5030878;28;20053;-78
2021/04/28 02:27:16;;;;;;;7.57;3.15;;;;;;;3.94;100.00;99172.06;5030774;28;20415;-78
2021/04/28 02:30:23;;;;;;;6.63;4.10;;;;;;;3.94;100.00;99166.53;5030590;28;20546;-78
2021/04/28 02:33:26;;;;;;;3.95;2.38;;;;;;;3.97;100.00;99168.38;5030777;28;20411;-78
2021/04/28 02:36:37;;;;;;;6.70;3.42;;;;;;;3.97;100.00;99167.59;5031238;28;20430;-77
2021/04/28 02:39:45;;;;;;;6.68;3.28;;;;;;;3.97;100.00;99165.63;5031462;28;20382;-77
2021/04/28 02:42:49;;;;;;;7.90;3.20;;;;;;;4.00;100.00;99164.75;5031006;28;20056;-78
2021/04/28 02:45:55;;;;;;;6.93;3.28;;;;;;;4.03;100.00;99169.34;5030622;28;20402;-78
2021/04/28 02:49:00;;;;;;;4.97;2.47;;;;;;;4.05;100.00;99166.91;5030111;28;20056;-78
2021/04/28 02:52:04;;;;;;;4.25;3.17;;;;;;;4.05;100.00;99164.16;5045025;28;20055;-78
2021/04/28 02:55:08;;;;;;;5.57;2.55;;;;;;;4.07;100.00;99158.97;5050663;28;20060;-78
2021/04/28 02:58:12;;;;;;;5.00;3.28;;;;;;;4.06;100.00;99156.66;5050742;28;20060;-77
2021/04/28 03:01:16;;;;;;;6.22;2.70;;;;;;;4.05;100.00;99152.38;5050635;28;20063;-78
2021/04/28 03:04:19;;;;;;;3.90;2.22;;;;;;;4.06;100.00;99167.69;5050017;28;20068;-78
2021/04/28 03:07:23;;;;;;;13.43;2.85;;;;;;;4.06;100.00;99154.69;5050297;28;20522;-78
2021/04/28 03:10:27;;;;;;;9.90;3.20;;;;;;;4.07;100.00;99147.19;5050709;28;20052;-77
2021/04/28 03:13:31;;;;;;;3.35;2.67;;;;;;;4.07;100.00;99150.69;5050766;28;20414;-77
2021/04/28 03:16:35;;;;;;;4.63;2.58;;;;;;;4.08;100.00;99149.50;5050499;28;20136;-78
2021/04/28 03:19:39;;;;;;;3.22;2.95;;;;;;;4.09;100.00;99156.56;5050458;28;20057;-78
2021/04/28 03:22:43;;;;;;;6.30;3.58;;;;;;;4.06;100.00;99146.41;5045751;28;20100;-78
2021/04/28 03:25:47;;;;;;;2.88;2.20;;;;;;;4.09;100.00;99151.03;5046255;28;20052;-78
2021/04/28 03:28:50;;;;;;;7.45;3.63;;;;;;;4.10;100.00;99147.06;5034120;28;20557;-78
2021/04/28 03:31:53;;;;;;;2.97;2.75;;;;;;;4.11;100.00;99148.59;5050312;28;20060;-78
2021/04/28 03:34:57;;;;;;;3.47;2.40;;;;;;;4.11;100.00;99143.09;5037282;28;20059;-78
2021/04/28 03:38:01;;;;;;;5.57;2.75;;;;;;;4.12;100.00;99154.84;5050043;28;20048;-78
2021/04/28 03:41:04;;;;;;;2.55;2.40;;;;;;;4.11;100.00;99148.59;5049220;28;20072;-78
2021/04/28 03:44:08;;;;;;;8.50;2.78;;;;;;;4.14;100.00;99142.19;5050017;28;20068;-78
2021/04/28 03:47:11;;;;;;;8.93;3.15;;;;;;;4.14;100.00;99144.16;5050209;28;20064;-76
2021/04/28 03:50:15;;;;;;;5.90;2.40;;;;;;;4.12;100.00;99136.34;5049736;28;20429;-77
2021/04/28 03:53:19;;;;;;;3.17;2.85;;;;;;;4.14;100.00;99136.66;5029425;28;20056;-78
2021/04/28 03:56:26;;;;;;;2.85;2.42;;;;;;;4.16;100.00;99130.72;5030152;28;20502;-78
2021/04/28 03:59:29;;;;;;;3.70;2.53;;;;;;;4.14;100.00;99131.16;5029927;28;20049;-77
2021/04/28 04:02:33;;;;;;;3.58;2.47;;;;;;;4.14;100.00;99125.66;5034017;28;20064;-77
2021/04/28 04:05:36;;;;;;;3.65;2.83;;;;;;;4.14;100.00;99128.41;5033937;28;20058;-77
2021/04/28 04:08:40;;;;;;;7.82;2.55;;;;;;;4.16;100.00;99131.47;5034084;28;20060;-78
2021/04/28 04:11:43;;;;;;;6.63;3.30;;;;;;;4.14;100.00;99135.88;5032883;28;20069;-78
2021/04/28 04:14:47;;;;;;;4.40;2.97;;;;;;;4.12;100.00;99124.56;5033767;28;20060;-78
2021/04/28 04:17:50;;;;;;;3.03;1.48;;;;;;;4.10;100.00;99127.00;5033773;28;20061;-78
2021/04/28 04:20:54;;;;;;;7.90;3.13;;;;;;;4.09;100.00;99126.25;5033613;28;20061;-77
2021/04/28 04:23:58;;;;;;;2.65;1.85;;;;;;;4.07;100.00;99125.91;5033597;28;20072;-78
2021/04/28 04:27:01;;;;;;;7.85;3.25;;;;;;;4.04;100.00;99126.03;5033520;28;20049;-78
2021/04/28 04:30:05;;;;;;;3.33;2.25;;;;;;;4.01;100.00;99127.69;5032834;28;20554;-78
2021/04/28 04:33:10;;;;;;;8.55;3.25;;;;;;;4.02;100.00;99133.97;5033237;28;20052;-77
2021/04/28 04:36:14;;;;;;;1.75;1.65;;;;;;;4.01;100.00;99138.72;5033307;28;20537;-78
2021/04/28 04:39:17;;;;;;;10.73;2.53;;;;;;;4.00;100.00;99130.91;5033248;28;20056;-78
2021/04/28 04:42:20;;;;;;;3.50;1.67;;;;;;;3.98;100.00;99142.38;5032706;28;20056;-78
2021/04/28 04:45:24;;;;;;;4.47;1.90;;;;;;;3.97;100.00;99135.31;5044651;28;20052;-78
2021/04/28 04:48:27;;;;;;;5.68;3.17;;;;;;;3.98;100.00;99133.34;5033446;28;20060;-78
2021/04/28 04:51:31;;;;;;;2.47;2.33;;;;;;;3.97;100.00;99129.81;5038144;28;20549;-78
2021/04/28 04:54:35;;;;;;;2.00;1.90;;;;;;;3.98;100.00;99136.88;5052853;28;20502;-78
2021/04/28 04:57:38;;;;;;;5.60;2.67;;;;;;;3.99;100.00;99146.66;5052884;28;20052;-77
2021/04/28 05:00:42;;;;;;;4.40;2.50;;;;;;;4.03;100.00;99147.31;5053727;28;20052;-77
2021/04/28 05:03:45;;;;;;;4.57;1.80;;;;;;;4.09;100.00;99144.75;5052772;28;20055;-77
2021/04/28 05:06:49;;;;;;;5.88;2.13;;;;;;;4.10;100.00;99138.78;5052836;28;20064;-77
2021/04/28 05:09:52;;;;;;;3.38;2.47;;;;;;;4.10;100.00;99144.28;5051841;28;20079;-78
2021/04/28 05:12:55;;;;;;;2.53;2.33;;;;;;;4.08;100.00;99143.97;5050771;28;20427;-78
2021/04/28 05:15:59;;;;;;;3.63;2.00;;;;;;;4.05;100.00;99147.63;5052527;28;20537;-78
2021/04/28 05:19:03;;;;;;;8.15;3.15;;;;;;;4.04;100.00;99157.13;5051883;28;20063;-78
2021/04/28 05:22:06;;;;;;;4.15;3.80;;;;;;;4.00;100.00;99156.47;5051752;28;20427;-78
2021/04/28 05:25:12;;;;;;;14.38;3.90;;;;;;;4.02;100.00;99145.78;5051891;28;20530;-78
2021/04/28 05:28:15;;;;;;;4.25;2.95;;;;;;;4.03;100.00;99157.56;5052055;28;20537;-78
2021/04/28 05:31:18;;;;;;;3.58;2.58;;;;;;;4.07;100.00;99152.69;5052122;28;20056;-78
2021/04/28 05:34:22;;;;;;;19.20;2.67;;;;;;;4.11;100.00;99148.59;5051300;28;20056;-78
2021/04/28 05:37:25;;;;;;;2.55;2.28;;;;;;;4.19;100.00;99149.88;5050444;28;20067;-78
2021/04/28 05:40:29;;;;;;;4.20;2.65;;;;;;;4.28;100.00;99152.69;5051436;28;20307;-78
2021/04/28 05:43:33;;;;;;;10.57;3.40;;;;;;;4.34;100.00;99156.41;5051477;28;20072;-78
2021/04/28 05:46:38;;;;;;;4.78;3.63;;;;;;;4.39;100.00;99155.81;5054424;28;20052;-79
2021/04/28 05:49:42;;;;;;;7.53;3.33;;;;;;;4.47;100.00;99159.84;5038768;28;20052;-78
2021/04/28 05:52:47;;;;;;;7.82;3.08;;;;;;;4.57;100.00;99155.91;5050915;28;20071;-78
2021/04/28 05:55:50;;;;;;;9.48;2.92;;;;;;;4.68;100.00;99155.50;5049385;28;20056;-78
2021/04/28 05:58:53;;;;;;;8.35;3.88;;;;;;;4.81;100.00;99155.41;5050803;28;20076;-78
2021/04/28 06:01:57;;;;;;;11.30;4.30;;;;;;;4.98;100.00;99148.44;5050502;28;20415;-78
2021/04/28 06:05:00;;;;;;;4.45;3.00;;;;;;;5.17;100.00;99144.50;5050294;28;20052;-78
2021/04/28 06:08:04;;;;;;;2.97;1.90;;;;;;;5.39;100.00;99150.69;5050986;28;20072;-78
2021/04/28 06:11:08;;;;;;;5.63;2.30;;;;;;;5.61;100.00;99143.03;5050632;28;20052;-78
2021/04/28 06:14:12;;;;;;;5.63;2.67;;;;;;;5.82;100.00;99136.63;5049174;28;20064;-78
2021/04/28 06:17:15;;;;;;;11.80;3.78;;;;;;;5.98;100.00;99141.84;5031643;28;20092;-78
2021/04/28 06:20:19;;;;;;;3.78;3.17;;;;;;;6.13;100.00;99148.28;5030081;28;20056;-78
2021/04/28 06:23:22;;;;;;;5.40;2.17;;;;;;;6.16;100.00;99140.28;5029738;28;20056;-77
2021/04/28 06:26:26;;;;;;;4.25;3.13;;;;;;;6.15;100.00;99136.00;5030795;28;20068;-77
2021/04/28 06:29:29;;;;;;;7.93;2.95;;;;;;;6.18;100.00;99132.28;5030548;28;20053;-77
2021/04/28 06:32:33;;;;;;;5.63;3.67;;;;;;;6.15;100.00;99133.25;5030806;28;20061;-78
2021/04/28 06:35:37;;;;;;;6.53;3.67;;;;;;;6.08;100.00;99126.03;5019523;28;20068;-78
2021/04/28 06:38:41;;;;;;;2.60;2.10;;;;;;;6.02;100.00;99136.91;5047168;28;20056;-77
2021/04/28 06:41:44;;;;;;;5.93;3.40;;;;;;;5.98;100.00;99130.78;5050275;28;20048;-77
2021/04/28 06:44:48;;;;;;;14.10;3.22;;;;;;;5.99;100.00;99117.75;5049986;28;20056;-77
2021/04/28 06:47:53;;;;;;;3.78;2.20;;;;;;;6.03;100.00;99116.34;5048441;28;20055;-77
2021/04/28 06:50:57;;;;;;;7.47;2.80;;;;;;;6.02;100.00;99116.81;5029692;28;20431;-77
2021/04/28 06:54:00;;;;;;;3.83;2.47;;;;;;;6.01;100.00;99116.06;5029654;28;20056;-81
2021/04/28 06:57:05;;;;;;;1.50;1.40;;;;;;;6.01;100.00;99113.28;5029452;28;20395;-82
2021/04/28 07:00:09;;;;;;;6.72;2.72;;;;;;;6.05;100.00;99113.91;5032299;28;20056;-81
2021/04/28 07:03:12;;;;;;;2.33;2.22;;;;;;;6.08;100.00;99117.72;5018437;28;20518;-81
2021/04/28 07:06:16;;;;;;;24.27;4.00;;;;;;;6.13;100.00;99115.09;5029866;28;20419;-81
2021/04/28 07:09:19;;;;;;;3.50;2.28;;;;;;;6.20;100.00;99114.03;5029119;28;20056;-82
2021/04/28 07:12:22;;;;;;;11.85;2.75;;;;;;;6.28;100.00;99112.44;5029893;28;20076;-82
2021/04/28 07:15:27;;;;;;;2.83;2.47;;;;;;;6.37;100.00;99114.44;5030516;28;20060;-80
2021/04/28 07:18:30;;;;;;;9.43;4.18;;;;;;;6.43;100.00;99112.59;5029703;28;20057;-81
2021/04/28 07:21:34;;;;;;;12.40;2.97;;;;;;;6.48;100.00;99117.47;5029520;28;20060;-82
2021/04/28 07:24:37;;;;;;;5.47;2.72;;;;;;;6.61;100.00;99115.28;5029716;28;20057;-81
2021/04/28 07:27:43;;;;;;;6.88;2.63;;;;;;;6.75;100.00;99126.47;5029737;28;20423;-82
2021/04/28 07:30:47;;;;;;;8.77;2.88;;;;;;;6.78;100.00;99127.50;5030070;28;20049;-81
2021/04/28 07:33:51;;;;;;;9.38;2.47;;;;;;;6.84;100.00;99128.44;5037738;28;20072;-81
2021/04/28 07:36:54;;;;;;;5.15;2.78;;;;;;;6.86;100.00;99125.97;5048999;28;20072;-80
2021/04/28 07:39:57;;;;;;;3.00;2.42;;;;;;;6.88;100.00;99135.34;5049503;28;20117;-82
2021/04/28 07:43:02;;;;;;;7.43;2.67;;;;;;;6.96;100.00;99126.66;5049324;28;20056;-79
2021/04/28 07:46:05;;;;;;;12.45;3.60;;;;;;;7.03;100.00;99129.09;5050167;28;20056;-82
2021/04/28 07:49:09;;;;;;;3.47;2.20;;;;;;;7.15;100.00;99131.66;5048979;28;20098;-82
2021/04/28 07:52:13;;;;;;;1.83;1.80;;;;;;;7.27;100.00;99133.44;5049595;28;20056;-81
2021/04/28 07:55:16;;;;;;;4.25;2.75;;;;;;;7.33;100.00;99128.78;5050259;28;20071;-80
2021/04/28 07:58:20;;;;;;;4.90;2.63;;;;;;;7.48;100.00;99137.91;5048648;28;20063;-81
2021/04/28 08:01:24;;;;;;;9.80;2.72;;;;;;;7.68;100.00;99133.78;5052537;28;20052;-80
2021/04/28 08:04:27;;;;;;;3.33;2.50;;;;;;;7.81;100.00;99153.69;5049598;28;20060;-81
2021/04/28 08:07:31;;;;;;;12.88;3.00;;;;;;;7.98;100.00;99158.31;5048570;28;20071;-81
2021/04/28 08:10:35;;;;;;;7.25;1.70;;;;;;;8.09;100.00;99152.22;5048890;28;20059;-82
2021/04/28 08:13:38;;;;;;;2.40;1.40;;;;;;;8.18;100.00;99152.16;5049363;28;20072;-81
2021/04/28 08:16:42;;;;;;;4.07;2.80;;;;;;;8.32;100.00;99148.63;5049824;28;20060;-82
2021/04/28 08:19:45;;;;;;;4.47;2.08;;;;;;;8.48;100.00;99150.19;5044838;28;20056;-83
2021/04/28 08:22:49;;;;;;;5.97;2.10;;;;;;;8.61;100.00;99170.09;5048872;28;20063;-82
2021/04/28 08:25:52;;;;;;;5.85;2.10;;;;;;;8.69;100.00;99160.91;5045413;28;20549;-83
2021/04/28 08:28:57;;;;;;;5.35;2.70;;;;;;;8.84;100.00;99161.66;5048730;28;20056;-80
2021/04/28 08:32:00;;;;;;;3.40;1.58;;;;;;;8.91;100.00;99172.38;5037301;28;20056;-81
2021/04/28 08:35:06;;;;;;;6.05;2.25;;;;;;;8.99;100.00;99173.50;5036562;28;20403;-81
2021/04/28 08:38:10;;;;;;;2.72;1.45;;;;;;;8.99;100.00;99175.50;5049397;28;20056;-81
2021/04/28 08:41:13;;;;;;;1.80;1.40;;;;;;;8.95;100.00;99172.94;5049286;28;20072;-82
2021/04/28 08:44:19;;;;;;;3.30;1.92;;;;;;;8.96;100.00;99168.94;5049216;28;20052;-82
2021/04/28 08:47:23;;;;;;;3.03;1.70;;;;;;;8.91;100.00;99180.69;5051338;28;20068;-82
2021/04/28 08:50:26;;;;;;;4.03;1.65;;;;;;;8.85;100.00;99190.19;5051528;28;20060;-80
2021/04/28 08:53:32;;;;;;;2.53;1.30;;;;;;;8.88;100.00;99194.78;5046623;28;20132;-81
2021/04/28 08:56:35;;;;;;;1.88;1.52;;;;;;;8.95;100.00;99186.81;5047079;28;20060;-80
2021/04/28 08:59:39;;;;;;;5.22;2.17;;;;;;;8.88;100.00;99198.31;5048655;28;20490;-81
2021/04/28 09:02:56;;;;;;;12.13;2.65;;;;;;;8.77;100.00;99195.34;5073473;28;20059;-80
2021/04/28 09:06:01;;;;;;;3.17;1.67;;;;;;;8.73;100.00;99194.00;5072465;28;20056;-81
2021/04/28 09:09:09;;;;;;;3.10;1.75;;;;;;;8.67;100.00;99196.69;5072472;28;20055;-81
2021/04/28 09:12:12;;;;;;;5.07;1.88;;;;;;;8.64;100.00;99192.09;5071872;28;20541;-81
2021/04/28 09:15:30;;;;;;;4.80;1.95;;;;;;;8.66;100.00;99197.97;5072754;28;20055;-81
2021/04/28 09:18:35;;;;;;;3.75;0.98;;;;;;;8.62;100.00;99194.56;5066707;28;20059;-80
2021/04/28 09:21:50;;;;;;;3.67;1.63;;;;;;;8.64;100.00;99188.56;5072584;28;20406;-81
2021/04/28 09:24:54;;;;;;;5.55;1.08;;;;;;;8.63;100.00;99196.13;5072499;28;20051;-81
2021/04/28 09:28:18;;;;;;;4.90;1.58;;;;;;;8.66;100.00;99189.63;5072195;28;20052;-81
2021/04/28 09:31:22;;;;;;;4.72;1.88;;;;;;;8.69;100.00;99193.44;5072231;28;20064;-82
2021/04/28 09:34:32;;;;;;;10.77;2.70;;;;;;;8.67;100.00;99199.47;5065134;28;20110;-81
2021/04/28 09:37:53;;;;;;;3.00;1.43;;;;;;;8.72;100.00;99198.81;5060121;28;20063;-81
2021/04/28 09:40:57;;;;;;;6.60;1.42;;;;;;;8.80;100.00;99194.41;5072159;28;20056;-81
2021/04/28 09:44:01;;;;;;;2.13;1.10;;;;;;;8.83;100.00;99201.00;5072116;28;20449;-80
2021/04/28 09:47:15;;;;;;;3.13;1.55;;;;;;;8.80;100.00;99188.84;5060342;28;20052;-80
2021/04/28 09:50:27;;;;;;;2.42;1.38;;;;;;;8.81;100.00;99198.72;5070991;28;20418;-80
2021/04/28 09:53:31;;;;;;;6.30;2.42;;;;;;;8.82;100.00;99194.69;5051987;28;20518;-81
2021/04/28 09:56:39;;;;;;;5.35;1.65;;;;;;;8.81;100.00;99190.38;5051832;28;20063;-80
2021/04/28 09:59:51;;;;;;;1.33;1.00;;;;;;;8.76;100.00;99193.06;5052313;28;20052;-81
2021/04/28 10:03:03;;;;;;;8.43;1.80;;;;;;;8.70;100.00;99194.97;5052417;28;20529;-81
2021/04/28 10:06:07;;;;;;;1.48;0.90;;;;;;;8.68;100.00;99187.13;5051897;28;20052;-80
2021/04/28 10:09:36;;;;;;;2.47;0.85;;;;;;;8.70;100.00;99184.66;5051684;28;20406;-80
2021/04/28 10:12:40;;;;;;;12.70;2.05;;;;;;;8.69;100.00;99188.66;5051078;28;20056;-80
2021/04/28 10:15:44;;;;;;;2.58;1.15;;;;;;;8.67;100.00;99188.38;5032721;28;20053;-80
2021/04/28 10:18:48;;;;;;;1.33;0.98;;;;;;;8.71;100.00;99180.59;5051922;28;20060;-80
2021/04/28 10:21:55;;;;;;;4.55;1.20;;;;;;;8.81;100.00;99182.06;5051563;28;20056;-80
2021/04/28 10:25:04;;;;;;;6.20;1.35;;;;;;;8.93;100.00;99194.88;5052778;28;20055;-80
2021/04/28 10:28:11;;;;;;;1.40;1.08;;;;;;;8.97;100.00;99187.09;5052206;28;20052;-80
2021/04/28 10:31:19;;;;;;;2.00;1.55;;;;;;;9.02;100.00;99197.53;5039232;28;20056;-81
2021/04/28 10:34:29;;;;;;;1.55;1.13;;;;;;;9.13;100.00;99186.59;5037850;28;20581;-80
2021/04/28 10:37:34;;;;;;;4.78;0.98;;;;;;;9.30;100.00;99191.63;5050104;28;20055;-80
2021/04/28 10:40:38;;;;;;;3.90;1.92;;;;;;;9.53;100.00;99193.50;5050802;28;20059;-80
2021/04/28 10:43:41;;;;;;;1.65;0.93;;;;;;;9.75;100.00;99188.22;5038735;28;20060;-79
2021/04/28 10:46:45;;;;;;;3.72;1.38;;;;;;;9.89;100.00;99184.63;5051497;28;20065;-79
2021/04/28 10:50:08;;;;;;;0.88;0.70;;;;;;;10.14;100.00;99192.28;5050655;28;20052;-79
2021/04/28 10:53:24;;;;;;;1.40;1.30;;;;;;;10.30;100.00;99182.59;5018868;28;20230;-79
2021/04/28 10:56:28;;;;;;;2.70;0.88;;;;;;;10.22;100.00;99184.28;5030165;28;20068;-80
2021/04/28 10:59:31;;;;;;;4.90;1.40;;;;;;;10.02;100.00;99182.25;5030807;28;20411;-79
2021/04/28 11:02:35;;;;;;;1.55;1.13;;;;;;;9.83;100.00;99172.66;5042177;28;20068;-79
2021/04/28 11:05:38;;;;;;;0.75;0.75;;;;;;;9.66;100.00;99166.09;5030533;28;20052;-80
2021/04/28 11:08:42;;;;;;;1.92;1.45;;;;;;;9.50;100.00;99175.78;5029595;28;20056;-79
2021/04/28 11:11:48;;;;;;;1.77;1.02;;;;;;;9.34;100.00;99176.28;5030625;28;20064;-79
2021/04/28 11:14:51;;;;;;;5.90;0.80;;;;;;;9.16;100.00;99180.06;5030934;28;20052;-80
2021/04/28 11:18:33;;;;;;;1.58;1.10;;;;;;;9.08;100.00;99181.72;5031135;28;20056;-79
2021/04/28 11:21:36;;;;;;;2.63;1.48;;;;;;;9.02;100.00;99180.88;5029390;28;20411;-79
2021/04/28 11:24:50;;;;;;;3.65;1.60;;;;;;;8.95;100.00;99180.50;5029062;28;20107;-78
2021/04/28 11:28:01;;;;;;;1.50;0.88;;;;;;;8.89;100.00;99191.53;5029146;28;20048;-79
2021/04/28 11:31:05;;;;;;;0.85;0.73;;;;;;;8.81;100.00;99201.50;5030417;28;20056;-79
2021/04/28 11:34:26;;;;;;;3.63;1.42;;;;;;;8.82;100.00;99202.25;5030185;28;20411;-78
2021/04/28 11:37:29;;;;;;;;;;;;;;;8.80;100.00;99205.50;5030327;28;20060;-79
2021/04/28 11:40:51;;;;;;;1.42;1.00;;;;;;;8.80;100.00;99205.50;5030428;28;19925;-78
2021/04/28 11:43:57;;;;;;;2.60;1.33;;;;;;;8.80;100.00;99208.28;5029975;28;20069;-79
2021/04/28 11:47:12;;;;;;;0.65;0.65;;;;;;;8.81;100.00;99201.50;5029815;28;20056;-79
2021/04/28 11:50:17;;;;;;;2.05;1.67;;;;;;;8.84;100.00;99203.28;5030192;28;20056;-79
2021/04/28 11:53:21;;;;;;;1.63;1.00;;;;;;;8.87;100.00;99204.34;5028983;28;20064;-79
2021/04/28 11:56:43;;;;;;;3.13;1.00;;;;;;;8.89;100.00;99210.97;5030258;28;20048;-79
2021/04/28 11:59:47;;;;;;;5.20;1.95;;;;;;;8.92;100.00;99215.53;5030620;28;20053;-79
2021/04/28 12:03:00;;;;;;;1.15;0.95;;;;;;;8.92;100.00;99209.97;5030497;28;20056;-79
2021/04/28 12:06:29;;;;;;;8.55;1.95;;;;;;;8.96;100.00;99210.56;5029818;28;20407;-78
2021/04/28 12:09:52;;;;;;;2.38;1.15;;;;;;;9.04;100.00;99214.50;5029315;28;20098;-77
2021/04/28 12:12:55;;;;;;;3.72;1.60;;;;;;;9.15;100.00;99213.91;5029819;28;20529;-77
2021/04/28 12:15:59;;;;;;;3.28;1.30;;;;;;;9.30;100.00;99222.97;5030282;28;20065;-77
2021/04/28 12:19:13;;;;;;;2.17;1.25;;;;;;;9.49;100.00;99220.72;5040486;28;20052;-78
2021/04/28 12:22:16;;;;;;;1.85;1.23;;;;;;;9.66;100.00;99230.03;5033353;28;20061;-78
2021/04/28 12:25:20;;;;;;;4.05;1.75;;;;;;;9.85;100.00;99231.34;5032826;28;20056;-78
2021/04/28 12:28:24;;;;;;;2.78;0.73;;;;;;;9.94;100.00;99233.97;5033763;28;20056;-78
2021/04/28 12:31:47;;;;;;;6.70;1.92;;;;;;;10.03;100.00;99244.97;5055985;28;20056;-80
2021/04/28 12:35:09;;;;;;;2.72;1.58;;;;;;;10.12;100.00;99228.16;5053489;28;20056;-79
2021/04/28 12:38:14;;;;;;;;;;;;;;;10.18;100.00;99242.91;5053925;28;20060;-80
2021/04/28 12:41:17;;;;;;;1.40;0.40;;;;;;;10.20;100.00;99226.47;5052575;28;20286;-79
2021/04/28 12:44:23;;;;;;;14.18;1.52;;;;;;;10.35;100.00;99235.50;5053694;28;20064;-78
2021/04/28 12:47:29;;;;;;;3.58;1.15;;;;;;;10.57;100.00;99229.41;5054271;28;20060;-79
2021/04/28 12:50:34;;;;;;;1.35;0.88;;;;;;;10.77;100.00;99234.19;5053726;28;20060;-82
2021/04/28 12:53:41;;;;;;;1.50;0.90;;;;;;;10.85;100.00;99238.81;5054806;28;20517;-79
2021/04/28 12:56:46;;;;;;;3.13;1.63;;;;;;;11.03;100.00;99229.34;5053118;28;20052;-85
2021/04/28 13:00:06;;;;;;;6.70;0.93;;;;;;;11.19;100.00;99234.31;5040360;28;20052;-87
2021/04/28 13:03:10;;;;;;;4.85;0.85;;;;;;;11.20;100.00;99246.97;5040285;28;20056;-87
2021/04/28 13:06:25;;;;;;;4.97;1.65;;;;;;;11.09;100.00;99241.31;5054557;28;20411;-84
2021/04/28 13:09:29;;;;;;;2.10;0.93;;;;;;;11.03;100.00;99243.28;5039584;28;20510;-80
2021/04/28 13:12:37;;;;;;;0.75;0.63;;;;;;;10.95;100.00;99236.63;5052592;28;20060;-82
2021/04/28 13:15:41;;;;;;;10.02;1.08;;;;;;;10.78;100.00;99238.50;5042033;28;20537;-77
2021/04/28 13:18:51;;;;;;;5.93;1.08;;;;;;;10.71;100.00;99239.72;5053534;28;20049;-75
2021/04/28 13:21:59;;;;;;;3.25;0.70;;;;;;;10.56;100.00;99250.94;5055166;28;20060;-77
2021/04/28 13:25:03;;;;;;;0.93;0.80;;;;;;;10.38;100.00;99240.13;5052755;28;20079;-75
2021/04/28 13:28:37;;;;;;;2.08;1.10;;;;;;;10.36;100.00;99239.84;5052781;28;20068;-77
2021/04/28 13:31:44;;;;;;;1.75;0.93;;;;;;;10.23;100.00;99236.66;5051307;28;20049;-82
2021/04/28 13:34:47;;;;;;;1.02;0.57;;;;;;;10.03;100.00;99244.97;5051960;28;20064;-74
2021/04/28 13:37:55;;;;;;;3.50;1.40;;;;;;;10.08;100.00;99247.06;5039879;28;20048;-74
2021/04/28 13:41:10;;;;;;;3.95;1.08;;;;;;;10.06;100.00;99234.88;5052122;28;20059;-74
2021/04/28 13:44:13;;;;;;;0.40;0.40;;;;;;;9.93;100.00;99238.00;5051231;28;20419;-73
2021/04/28 13:47:16;;;;;;;3.25;1.15;;;;;;;9.73;100.00;99238.00;5133519;22;21090;-76
2021/04/28 13:50:21;;;;;;;1.25;0.52;;;;;;;9.64;100.00;99235.31;5068505;28;20055;-74
2021/04/28 13:53:25;;;;;;;4.60;1.00;;;;;;;9.56;100.00;99225.88;5084427;28;20060;-74
2021/04/28 13:56:29;;;;;;;2.50;0.90;;;;;;;9.45;100.00;99225.72;5091873;28;20059;-76
2021/04/28 13:59:33;;;;;;;8.38;1.08;;;;;;;9.31;100.00;99232.06;5092000;28;20423;-75
2021/04/28 14:02:37;;;;;;;3.28;1.73;;;;;;;9.20;100.00;99229.13;5092494;28;20074;-77
2021/04/28 14:05:40;;;;;;;0.63;0.63;;;;;;;9.11;100.00;99235.56;5091999;28;20062;-76
2021/04/28 14:08:44;;;;;;;1.42;1.13;;;;;;;9.02;100.00;99239.19;5091397;28;20067;-74
2021/04/28 14:11:48;;;;;;;4.30;1.27;;;;;;;8.96;100.00;99235.56;5091606;28;20418;-75
2021/04/28 14:14:51;;;;;;;3.53;1.38;;;;;;;8.94;100.00;99229.69;5091821;28;20074;-77
2021/04/28 14:17:54;;;;;;;0.70;0.70;;;;;;;9.05;100.00;99227.13;5092834;28;20070;-75
2021/04/28 14:20:57;;;;;;;1.75;0.70;;;;;;;9.26;100.00;99219.63;5091710;28;20058;-75
2021/04/28 14:24:01;;;;;;;6.78;1.45;;;;;;;9.51;100.00;99218.22;5074403;28;20060;-74
2021/04/28 14:27:07;;;;;;;1.40;0.73;;;;;;;9.72;100.00;99217.75;5071229;28;20520;-73
2021/04/28 14:30:10;;;;;;;1.67;0.25;;;;;;;9.96;100.00;99206.47;5088401;28;20051;-74
2021/04/28 14:33:14;;;;;;;1.27;1.15;;;;;;;10.15;100.00;99209.75;5086449;28;20047;-76